Thorco Attraction — V2BS1 — position and weather

sailwx.info

Track history (hours):
 
Tides and Currents Weather Stations Pressure Air Temp Water Temp Dewpoint Dewpoint Depression Visibility Wind Speed Wind Dir Waves Ship Positions

Thorco Attraction

Last reported at 2014-Oct-04 12:26 UTC. Time now 2014-Oct-24 07:11 UTC.
Position S 34°01' E 018°06'.
Warning: this ship's position is 19 days out of date.

Length 132 m; draft 4.5 m.

Type: Cargo ship. MMSI: 304908000.

Date/timePositionNaut miles runAvg speedWind from/ knotsBaromVisibWave heightAir tempDewpointWater temp
2014-Oct-04 12:26S 34°01' E 018°06'1011.4
2014-Oct-04 11:31S 34°11' E 018°12'  
2014-Oct-01 16:33S 29°54' E 031°09'5 5.3
2014-Oct-01 15:33S 29°53' E 031°03'1 0.2
2014-Oct-01 11:08S 29°53' E 031°02'0 0.0
2014-Oct-01 10:14S 29°53' E 031°02'0 0.0
2014-Oct-01 08:26S 29°53' E 031°02'0 0.0
2014-Oct-01 07:20S 29°53' E 031°02'0 0.0
2014-Oct-01 05:31S 29°53' E 031°02'0 0.0
2014-Oct-01 04:07S 29°53' E 031°02'0 0.0
2014-Oct-01 03:32S 29°53' E 031°02'0 0.0
2014-Oct-01 01:14S 29°53' E 031°02'0 0.0
2014-Sep-30 23:14S 29°53' E 031°02'0 0.0
2014-Sep-30 22:14S 29°53' E 031°02'0 0.0
2014-Sep-30 21:14S 29°53' E 031°02'1 0.3
2014-Sep-30 17:33S 29°52' E 031°01'1 1.1
2014-Sep-30 16:31S 29°53' E 030°60'0 0.0
2014-Sep-30 13:13S 29°53' E 030°60'0 0.0
2014-Sep-30 11:13S 29°53' E 030°60'0 0.0
2014-Sep-30 10:31S 29°53' E 030°60'0 0.0
2014-Sep-30 09:19S 29°53' E 030°60'0 0.0
2014-Sep-30 08:25S 29°53' E 030°60'0 0.0
2014-Sep-30 07:25S 29°53' E 030°60'0 0.0
2014-Sep-30 05:19S 29°53' E 030°60'0 0.0
2014-Sep-30 04:31S 29°53' E 030°60'0 0.0
2014-Sep-30 00:13S 29°53' E 030°60'0 0.0
2014-Sep-29 23:07S 29°53' E 030°60'0 0.0
2014-Sep-29 22:29S 29°53' E 030°60'3 3.7
2014-Sep-29 21:33S 29°52' E 031°04'3 3.4
2014-Sep-29 20:33S 29°49' E 031°05'1 1.4
2014-Sep-29 19:33S 29°48' E 031°06'1 1.2
2014-Sep-29 18:32S 29°46' E 031°06'0 0.2
2014-Sep-29 17:33S 29°46' E 031°05'0 0.0
2014-Sep-29 16:33S 29°46' E 031°06'0 0.0
2014-Sep-29 15:33S 29°46' E 031°06'0 0.0
2014-Sep-29 14:33S 29°46' E 031°05'0 0.0
2014-Sep-29 13:33S 29°47' E 031°05'0 0.0
2014-Sep-29 12:33S 29°47' E 031°05'0 0.0
2014-Sep-29 11:33S 29°47' E 031°05'0 0.0
2014-Sep-29 10:33S 29°47' E 031°05'0 0.0
2014-Sep-29 09:33S 29°47' E 031°05'0 0.0
2014-Sep-29 08:33S 29°47' E 031°05'0 0.0
2014-Sep-29 07:33S 29°47' E 031°05'0 0.0
2014-Sep-29 06:33S 29°47' E 031°05'0 0.0
2014-Sep-29 05:33S 29°47' E 031°05'0 0.0
2014-Sep-29 04:33S 29°47' E 031°05'0 0.0
2014-Sep-29 03:33S 29°47' E 031°05'0 0.0
2014-Sep-29 02:33S 29°47' E 031°05'0 0.0
2014-Sep-29 01:33S 29°46' E 031°05'0 0.0
2014-Sep-29 00:33S 29°46' E 031°06'0 0.0
2014-Sep-28 23:33S 29°46' E 031°05'0 0.0
2014-Sep-28 22:33S 29°47' E 031°05'0 0.0
2014-Sep-28 21:33S 29°47' E 031°05'0 0.0
2014-Sep-28 20:33S 29°47' E 031°05'0 0.0
2014-Sep-28 19:33S 29°47' E 031°05'0 0.0
2014-Sep-28 18:33S 29°47' E 031°05'0 0.0
2014-Sep-28 17:33S 29°46' E 031°05'0 0.1
2014-Sep-28 16:33S 29°46' E 031°06'0 0.1
2014-Sep-28 15:33S 29°46' E 031°06'0 0.0
2014-Sep-28 14:33S 29°46' E 031°06'0 0.0
2014-Sep-28 13:33S 29°46' E 031°06'0 0.0
2014-Sep-28 12:33S 29°46' E 031°06'0 0.0
2014-Sep-28 11:33S 29°46' E 031°06'0 0.0
2014-Sep-28 10:33S 29°46' E 031°06'0 0.0
2014-Sep-28 09:33S 29°46' E 031°06'0 0.0
2014-Sep-28 08:33S 29°46' E 031°06'0 0.0
2014-Sep-28 07:33S 29°46' E 031°06'0 0.0
2014-Sep-28 06:33S 29°46' E 031°06'0 0.0
2014-Sep-28 05:33S 29°46' E 031°06'0 0.0
2014-Sep-28 04:33S 29°46' E 031°06'0 0.0
2014-Sep-28 03:33S 29°46' E 031°06'0 0.0
2014-Sep-28 02:33S 29°46' E 031°06'0 0.1
2014-Sep-28 01:32S 29°46' E 031°06'0 0.0
2014-Sep-28 00:30S 29°46' E 031°06'0 0.0
2014-Sep-27 23:33S 29°46' E 031°06'0 0.1
2014-Sep-27 22:33S 29°46' E 031°06'0 0.0
2014-Sep-27 21:33S 29°46' E 031°06'0 0.0
2014-Sep-27 20:33S 29°46' E 031°06'0 0.0
2014-Sep-27 19:33S 29°46' E 031°06'0 0.0
2014-Sep-27 18:29S 29°46' E 031°06'0 0.0
2014-Sep-27 17:32S 29°46' E 031°06'0 0.0
2014-Sep-27 16:32S 29°46' E 031°06'0 0.0
2014-Sep-27 15:33S 29°46' E 031°06'0 0.0
2014-Sep-27 14:33S 29°46' E 031°06'0 0.0
2014-Sep-27 13:33S 29°46' E 031°06'0 0.2
2014-Sep-27 12:32S 29°47' E 031°06'0 0.4
2014-Sep-27 11:33S 29°47' E 031°06'1 1.3
2014-Sep-27 10:33S 29°48' E 031°07'1 0.9
2014-Sep-27 09:33S 29°47' E 031°06'2 1.8
2014-Sep-27 08:33S 29°48' E 031°05'1 1.0
2014-Sep-27 07:33S 29°48' E 031°06'1 0.6
2014-Sep-27 06:33S 29°48' E 031°07'1 0.9
2014-Sep-27 05:33S 29°48' E 031°06'1 0.6
2014-Sep-27 04:33S 29°48' E 031°06'4 4.4
2014-Sep-27 03:33S 29°45' E 031°10'0 0.1
2014-Sep-27 02:33S 29°45' E 031°10'0 0.0
2014-Sep-27 01:33S 29°45' E 031°10'0 0.0
2014-Sep-27 00:32S 29°45' E 031°10'0 0.0
2014-Sep-26 23:33S 29°45' E 031°10'0 0.0
2014-Sep-26 22:33S 29°45' E 031°10'0 0.0
2014-Sep-26 21:33S 29°45' E 031°10'0 0.0
2014-Sep-26 20:33S 29°45' E 031°10'0 0.0
2014-Sep-26 19:33S 29°45' E 031°10'4 3.9
2014-Sep-26 18:33S 29°48' E 031°07'4 3.4
2014-Sep-26 17:28S 29°45' E 031°10'0 0.1
2014-Sep-26 15:22S 29°45' E 031°10'0 0.0
2014-Sep-26 14:28S 29°45' E 031°10'0 0.0
2014-Sep-26 13:28S 29°45' E 031°10'0 0.0
2014-Sep-26 12:28S 29°45' E 031°10'0 0.0
2014-Sep-26 11:16S 29°45' E 031°10'0 0.0
2014-Sep-26 10:28S 29°45' E 031°10'0 0.1
2014-Sep-26 09:28S 29°45' E 031°10'0 0.1
2014-Sep-26 08:22S 29°45' E 031°10'0 0.0
2014-Sep-26 07:28S 29°45' E 031°10'0 0.0
2014-Sep-26 06:28S 29°45' E 031°10'0 0.1
2014-Sep-26 05:10S 29°45' E 031°10'0 0.0
2014-Sep-26 04:22S 29°45' E 031°10'0 0.1
2014-Sep-26 03:28S 29°45' E 031°10'0 0.1
2014-Sep-26 02:22S 29°45' E 031°10'0 0.1
2014-Sep-26 01:28S 29°45' E 031°10'0 0.0
2014-Sep-25 23:28S 29°45' E 031°10'0 0.0
2014-Sep-25 22:16S 29°45' E 031°10'0 0.0
2014-Sep-25 21:04S 29°45' E 031°10'0 0.0
2014-Sep-25 20:16S 29°45' E 031°10'0 0.0
2014-Sep-25 18:16S 29°45' E 031°10'0 0.0
2014-Sep-25 17:28S 29°45' E 031°10'0 0.0
2014-Sep-25 16:16S 29°45' E 031°10'0 0.0
2014-Sep-25 15:16S 29°45' E 031°10'0 0.0
2014-Sep-25 14:16S 29°45' E 031°10'0 0.0
2014-Sep-25 13:16S 29°45' E 031°10'0 0.0
2014-Sep-25 12:22S 29°45' E 031°10'0 0.0
2014-Sep-25 11:22S 29°45' E 031°10'0 0.1
2014-Sep-25 10:19S 29°45' E 031°10'5 6.0
2014-Sep-25 09:34S 29°50' E 031°09'1 0.7
2014-Sep-25 08:29S 29°49' E 031°09'5 4.9
2014-Sep-25 07:33S 29°45' E 031°11'0 0.1
2014-Sep-25 06:33S 29°45' E 031°11'0 0.0
2014-Sep-25 05:33S 29°45' E 031°11'0 0.1
2014-Sep-25 04:33S 29°45' E 031°11'0 0.1
2014-Sep-25 03:27S 29°45' E 031°11'0 0.1
2014-Sep-25 02:16S 29°45' E 031°11'0 0.1
2014-Sep-25 01:33S 29°45' E 031°11'0 0.0
2014-Sep-25 00:30S 29°45' E 031°11'0 0.1
2014-Sep-24 23:27S 29°45' E 031°11'0 0.1
2014-Sep-24 22:31S 29°45' E 031°11'0 0.2
2014-Sep-24 21:33S 29°45' E 031°11'0 0.0
2014-Sep-24 20:32S 29°45' E 031°11'0 0.1
2014-Sep-24 19:33S 29°45' E 031°11'0 0.2
2014-Sep-24 18:33S 29°45' E 031°11'0 0.1
2014-Sep-24 17:33S 29°45' E 031°11'0 0.1
2014-Sep-24 16:25S 29°45' E 031°11'0 0.1
2014-Sep-24 15:33S 29°45' E 031°11'0 0.1
2014-Sep-24 14:28S 29°45' E 031°11'0 0.2
2014-Sep-24 13:11S 29°45' E 031°11'  
Track history (hours):
 
Tides and Currents Weather Stations Pressure Air Temp Water Temp Dewpoint Dewpoint Depression Visibility Wind Speed Wind Dir Waves Ship Positions

Thorco Attraction

Last reported at 2014-Oct-04 12:26 UTC. Time now 2014-Oct-24 07:11 UTC.
Position S 34°01' E 018°06'.
Warning: this ship's position is 19 days out of date.

Length 132 m; draft 4.5 m.

Type: Cargo ship. MMSI: 304908000.

Date/timePositionNaut miles runAvg speedWind from/ knotsBaromVisibWave heightAir tempDewpointWater temp
2014-Oct-04 12:26S 34°01' E 018°06'1011.4
2014-Oct-04 11:31S 34°11' E 018°12'  
2014-Oct-01 16:33S 29°54' E 031°09'5 5.3
2014-Oct-01 15:33S 29°53' E 031°03'1 0.2
2014-Oct-01 11:08S 29°53' E 031°02'0 0.0
2014-Oct-01 10:14S 29°53' E 031°02'0 0.0
2014-Oct-01 08:26S 29°53' E 031°02'0 0.0
2014-Oct-01 07:20S 29°53' E 031°02'0 0.0
2014-Oct-01 05:31S 29°53' E 031°02'0 0.0
2014-Oct-01 04:07S 29°53' E 031°02'0 0.0
2014-Oct-01 03:32S 29°53' E 031°02'0 0.0
2014-Oct-01 01:14S 29°53' E 031°02'0 0.0
2014-Sep-30 23:14S 29°53' E 031°02'0 0.0
2014-Sep-30 22:14S 29°53' E 031°02'0 0.0
2014-Sep-30 21:14S 29°53' E 031°02'1 0.3
2014-Sep-30 17:33S 29°52' E 031°01'1 1.1
2014-Sep-30 16:31S 29°53' E 030°60'0 0.0
2014-Sep-30 13:13S 29°53' E 030°60'0 0.0
2014-Sep-30 11:13S 29°53' E 030°60'0 0.0
2014-Sep-30 10:31S 29°53' E 030°60'0 0.0
2014-Sep-30 09:19S 29°53' E 030°60'0 0.0
2014-Sep-30 08:25S 29°53' E 030°60'0 0.0
2014-Sep-30 07:25S 29°53' E 030°60'0 0.0
2014-Sep-30 05:19S 29°53' E 030°60'0 0.0
2014-Sep-30 04:31S 29°53' E 030°60'0 0.0
2014-Sep-30 00:13S 29°53' E 030°60'0 0.0
2014-Sep-29 23:07S 29°53' E 030°60'0 0.0
2014-Sep-29 22:29S 29°53' E 030°60'3 3.7
2014-Sep-29 21:33S 29°52' E 031°04'3 3.4
2014-Sep-29 20:33S 29°49' E 031°05'1 1.4
2014-Sep-29 19:33S 29°48' E 031°06'1 1.2
2014-Sep-29 18:32S 29°46' E 031°06'0 0.2
2014-Sep-29 17:33S 29°46' E 031°05'0 0.0
2014-Sep-29 16:33S 29°46' E 031°06'0 0.0
2014-Sep-29 15:33S 29°46' E 031°06'0 0.0
2014-Sep-29 14:33S 29°46' E 031°05'0 0.0
2014-Sep-29 13:33S 29°47' E 031°05'0 0.0
2014-Sep-29 12:33S 29°47' E 031°05'0 0.0
2014-Sep-29 11:33S 29°47' E 031°05'0 0.0
2014-Sep-29 10:33S 29°47' E 031°05'0 0.0
2014-Sep-29 09:33S 29°47' E 031°05'0 0.0
2014-Sep-29 08:33S 29°47' E 031°05'0 0.0
2014-Sep-29 07:33S 29°47' E 031°05'0 0.0
2014-Sep-29 06:33S 29°47' E 031°05'0 0.0
2014-Sep-29 05:33S 29°47' E 031°05'0 0.0
2014-Sep-29 04:33S 29°47' E 031°05'0 0.0
2014-Sep-29 03:33S 29°47' E 031°05'0 0.0
2014-Sep-29 02:33S 29°47' E 031°05'0 0.0
2014-Sep-29 01:33S 29°46' E 031°05'0 0.0
2014-Sep-29 00:33S 29°46' E 031°06'0 0.0
2014-Sep-28 23:33S 29°46' E 031°05'0 0.0
2014-Sep-28 22:33S 29°47' E 031°05'0 0.0
2014-Sep-28 21:33S 29°47' E 031°05'0 0.0
2014-Sep-28 20:33S 29°47' E 031°05'0 0.0
2014-Sep-28 19:33S 29°47' E 031°05'0 0.0
2014-Sep-28 18:33S 29°47' E 031°05'0 0.0
2014-Sep-28 17:33S 29°46' E 031°05'0 0.1
2014-Sep-28 16:33S 29°46' E 031°06'0 0.1
2014-Sep-28 15:33S 29°46' E 031°06'0 0.0
2014-Sep-28 14:33S 29°46' E 031°06'0 0.0
2014-Sep-28 13:33S 29°46' E 031°06'0 0.0
2014-Sep-28 12:33S 29°46' E 031°06'0 0.0
2014-Sep-28 11:33S 29°46' E 031°06'0 0.0
2014-Sep-28 10:33S 29°46' E 031°06'0 0.0
2014-Sep-28 09:33S 29°46' E 031°06'0 0.0
2014-Sep-28 08:33S 29°46' E 031°06'0 0.0
2014-Sep-28 07:33S 29°46' E 031°06'0 0.0
2014-Sep-28 06:33S 29°46' E 031°06'0 0.0
2014-Sep-28 05:33S 29°46' E 031°06'0 0.0
2014-Sep-28 04:33S 29°46' E 031°06'0 0.0
2014-Sep-28 03:33S 29°46' E 031°06'0 0.0
2014-Sep-28 02:33S 29°46' E 031°06'0 0.1
2014-Sep-28 01:32S 29°46' E 031°06'0 0.0
2014-Sep-28 00:30S 29°46' E 031°06'0 0.0
2014-Sep-27 23:33S 29°46' E 031°06'0 0.1
2014-Sep-27 22:33S 29°46' E 031°06'0 0.0
2014-Sep-27 21:33S 29°46' E 031°06'0 0.0
2014-Sep-27 20:33S 29°46' E 031°06'0 0.0
2014-Sep-27 19:33S 29°46' E 031°06'0 0.0
2014-Sep-27 18:29S 29°46' E 031°06'0 0.0
2014-Sep-27 17:32S 29°46' E 031°06'0 0.0
2014-Sep-27 16:32S 29°46' E 031°06'0 0.0
2014-Sep-27 15:33S 29°46' E 031°06'0 0.0
2014-Sep-27 14:33S 29°46' E 031°06'0 0.0
2014-Sep-27 13:33S 29°46' E 031°06'0 0.2
2014-Sep-27 12:32S 29°47' E 031°06'0 0.4
2014-Sep-27 11:33S 29°47' E 031°06'1 1.3
2014-Sep-27 10:33S 29°48' E 031°07'1 0.9
2014-Sep-27 09:33S 29°47' E 031°06'2 1.8
2014-Sep-27 08:33S 29°48' E 031°05'1 1.0
2014-Sep-27 07:33S 29°48' E 031°06'1 0.6
2014-Sep-27 06:33S 29°48' E 031°07'1 0.9
2014-Sep-27 05:33S 29°48' E 031°06'1 0.6
2014-Sep-27 04:33S 29°48' E 031°06'4 4.4
2014-Sep-27 03:33S 29°45' E 031°10'0 0.1
2014-Sep-27 02:33S 29°45' E 031°10'0 0.0
2014-Sep-27 01:33S 29°45' E 031°10'0 0.0
2014-Sep-27 00:32S 29°45' E 031°10'0 0.0
2014-Sep-26 23:33S 29°45' E 031°10'0 0.0
2014-Sep-26 22:33S 29°45' E 031°10'0 0.0
2014-Sep-26 21:33S 29°45' E 031°10'0 0.0
2014-Sep-26 20:33S 29°45' E 031°10'0 0.0
2014-Sep-26 19:33S 29°45' E 031°10'4 3.9
2014-Sep-26 18:33S 29°48' E 031°07'4 3.4
2014-Sep-26 17:28S 29°45' E 031°10'0 0.1
2014-Sep-26 15:22S 29°45' E 031°10'0 0.0
2014-Sep-26 14:28S 29°45' E 031°10'0 0.0
2014-Sep-26 13:28S 29°45' E 031°10'0 0.0
2014-Sep-26 12:28S 29°45' E 031°10'0 0.0
2014-Sep-26 11:16S 29°45' E 031°10'0 0.0
2014-Sep-26 10:28S 29°45' E 031°10'0 0.1
2014-Sep-26 09:28S 29°45' E 031°10'0 0.1
2014-Sep-26 08:22S 29°45' E 031°10'0 0.0
2014-Sep-26 07:28S 29°45' E 031°10'0 0.0
2014-Sep-26 06:28S 29°45' E 031°10'0 0.1
2014-Sep-26 05:10S 29°45' E 031°10'0 0.0
2014-Sep-26 04:22S 29°45' E 031°10'0 0.1
2014-Sep-26 03:28S 29°45' E 031°10'0 0.1
2014-Sep-26 02:22S 29°45' E 031°10'0 0.1
2014-Sep-26 01:28S 29°45' E 031°10'0 0.0
2014-Sep-25 23:28S 29°45' E 031°10'0 0.0
2014-Sep-25 22:16S 29°45' E 031°10'0 0.0
2014-Sep-25 21:04S 29°45' E 031°10'0 0.0
2014-Sep-25 20:16S 29°45' E 031°10'0 0.0
2014-Sep-25 18:16S 29°45' E 031°10'0 0.0
2014-Sep-25 17:28S 29°45' E 031°10'0 0.0
2014-Sep-25 16:16S 29°45' E 031°10'0 0.0
2014-Sep-25 15:16S 29°45' E 031°10'0 0.0
2014-Sep-25 14:16S 29°45' E 031°10'0 0.0
2014-Sep-25 13:16S 29°45' E 031°10'0 0.0
2014-Sep-25 12:22S 29°45' E 031°10'0 0.0
2014-Sep-25 11:22S 29°45' E 031°10'0 0.1
2014-Sep-25 10:19S 29°45' E 031°10'5 6.0
2014-Sep-25 09:34S 29°50' E 031°09'1 0.7
2014-Sep-25 08:29S 29°49' E 031°09'5 4.9
2014-Sep-25 07:33S 29°45' E 031°11'0 0.1
2014-Sep-25 06:33S 29°45' E 031°11'0 0.0
2014-Sep-25 05:33S 29°45' E 031°11'0 0.1
2014-Sep-25 04:33S 29°45' E 031°11'0 0.1
2014-Sep-25 03:27S 29°45' E 031°11'0 0.1
2014-Sep-25 02:16S 29°45' E 031°11'0 0.1
2014-Sep-25 01:33S 29°45' E 031°11'0 0.0
2014-Sep-25 00:30S 29°45' E 031°11'0 0.1
2014-Sep-24 23:27S 29°45' E 031°11'0 0.1
2014-Sep-24 22:31S 29°45' E 031°11'0 0.2
2014-Sep-24 21:33S 29°45' E 031°11'0 0.0
2014-Sep-24 20:32S 29°45' E 031°11'0 0.1
2014-Sep-24 19:33S 29°45' E 031°11'0 0.2
2014-Sep-24 18:33S 29°45' E 031°11'0 0.1
2014-Sep-24 17:33S 29°45' E 031°11'0 0.1
2014-Sep-24 16:25S 29°45' E 031°11'0 0.1
2014-Sep-24 15:33S 29°45' E 031°11'0 0.1
2014-Sep-24 14:28S 29°45' E 031°11'0 0.2
2014-Sep-24 13:11S 29°45' E 031°11'  

Dump ship's entire track history